Time;durP1;ratioP1;P1;durP2;ratioP2;P2;SDS_P1;SDS_P2;PMS_P1;PMS_P2;Temp;Humidity;BMP_temperature;BMP_pressure;BME280_temperature;BME280_humidity;BME280_pressure;Samples;Min_cycle;Max_cycle;Signal;HPM_P1;HPM_P2
2022/07/15 00:02:14;;;;;;;1.87;1.77;;;;;;;14.03;100.00;100547.14;1756072;80;20972;-41
2022/07/15 00:04:43;;;;;;;3.33;1.72;;;;;;;14.06;100.00;100550.50;1768909;80;21032;-42
2022/07/15 00:07:09;;;;;;;3.33;1.72;;;;;;;14.05;100.00;100550.10;1765898;80;20952;-42
2022/07/15 00:12:22;;;;;;;5.90;2.20;;;;;;;14.08;100.00;100556.95;1756205;80;21215;-42
2022/07/15 00:14:49;;;;;;;2.72;2.10;;;;;;;14.08;100.00;100555.64;1765510;80;20896;-42
2022/07/15 00:17:17;;;;;;;3.72;1.87;;;;;;;14.08;100.00;100552.61;1769700;80;21006;-42
2022/07/15 00:19:44;;;;;;;2.58;1.52;;;;;;;14.10;100.00;100551.23;1768467;80;21087;-41
2022/07/15 00:22:11;;;;;;;2.33;1.95;;;;;;;14.10;100.00;100551.23;1766365;80;21240;-42
2022/07/15 00:24:39;;;;;;;4.87;1.90;;;;;;;14.11;100.00;100554.70;1755284;80;20967;-42
2022/07/15 00:27:06;;;;;;;2.58;1.70;;;;;;;14.11;100.00;100553.41;1769679;80;21517;-42
2022/07/15 00:29:33;;;;;;;6.20;1.92;;;;;;;14.10;100.00;100547.80;1768668;80;20889;-42
2022/07/15 00:32:00;;;;;;;3.58;1.75;;;;;;;14.11;100.00;100546.90;1766607;80;20905;-42
2022/07/15 00:34:27;;;;;;;3.22;1.85;;;;;;;14.16;100.00;100545.00;1759232;80;21140;-43
2022/07/15 00:36:54;;;;;;;3.30;1.77;;;;;;;14.20;100.00;100546.59;1765475;80;20936;-43
2022/07/15 00:39:20;;;;;;;4.17;1.70;;;;;;;14.21;100.00;100538.75;1768639;80;21447;-42
2022/07/15 00:41:48;;;;;;;5.87;1.70;;;;;;;14.20;100.00;100536.19;1753055;80;21043;-43
2022/07/15 00:44:15;;;;;;;3.80;1.90;;;;;;;14.16;100.00;100541.09;1769118;80;21016;-43
2022/07/15 00:46:41;;;;;;;1.98;1.80;;;;;;;14.15;100.00;100544.59;1765622;80;21117;-43
2022/07/15 00:49:09;;;;;;;4.60;1.98;;;;;;;14.12;100.00;100539.49;1761642;80;20999;-42
2022/07/15 00:51:42;;;;;;;5.10;1.90;;;;;;;14.08;100.00;100538.29;1747816;80;20976;-41
2022/07/15 00:54:13;;;;;;;4.10;2.02;;;;;;;14.10;100.00;100535.63;1757625;79;21016;-42
2022/07/15 00:56:47;;;;;;;3.17;1.77;;;;;;;14.10;100.00;100538.69;1756796;79;20992;-42
2022/07/15 00:59:14;;;;;;;4.47;1.90;;;;;;;14.06;100.00;100531.42;1761344;80;21247;-42
2022/07/15 01:01:45;;;;;;;4.55;1.52;;;;;;;14.06;100.00;100531.42;1757322;80;20983;-42
2022/07/15 01:04:13;;;;;;;3.02;1.70;;;;;;;14.04;100.00;100529.31;1754999;79;20960;-43
2022/07/15 01:06:39;;;;;;;4.20;2.15;;;;;;;14.02;100.00;100529.39;1757959;79;20893;-42
2022/07/15 01:09:07;;;;;;;2.67;1.75;;;;;;;14.04;100.00;100527.58;1758287;80;20960;-42
2022/07/15 01:11:35;;;;;;;6.58;1.67;;;;;;;14.04;100.00;100529.31;1754924;79;21752;-43
2022/07/15 01:14:03;;;;;;;3.20;1.70;;;;;;;14.02;100.00;100526.78;1750094;80;21027;-42
2022/07/15 01:16:30;;;;;;;8.65;1.67;;;;;;;13.99;100.00;100525.55;1764890;80;20941;-42
2022/07/15 01:18:57;;;;;;;4.58;1.90;;;;;;;13.94;100.00;100522.25;1752726;80;21514;-42
2022/07/15 01:21:27;;;;;;;3.85;1.92;;;;;;;13.91;100.00;100523.65;1757887;79;21035;-42
2022/07/15 01:23:56;;;;;;;2.35;1.80;;;;;;;13.88;100.00;100519.38;1754247;80;22072;-42
2022/07/15 01:26:28;;;;;;;5.92;2.25;;;;;;;13.86;100.00;100520.34;1759459;79;20945;-42
2022/07/15 01:28:56;;;;;;;7.12;1.80;;;;;;;13.83;100.00;100521.75;1758222;79;21018;-42
2022/07/15 01:31:24;;;;;;;6.85;1.90;;;;;;;13.81;100.00;100517.04;1750801;80;21434;-42
2022/07/15 01:33:54;;;;;;;5.83;2.47;;;;;;;13.81;100.00;100517.88;1758263;79;20952;-42
2022/07/15 01:36:21;;;;;;;7.70;2.50;;;;;;;13.87;100.00;100518.98;1759182;80;20980;-42
2022/07/15 01:38:50;;;;;;;8.65;2.55;;;;;;;13.90;100.00;100518.91;1751542;79;21078;-42
2022/07/15 01:41:17;;;;;;;3.87;2.72;;;;;;;14.00;100.00;100521.21;1752676;80;21015;-42
2022/07/15 01:43:44;;;;;;;9.18;2.20;;;;;;;14.10;100.00;100523.08;1761405;80;20979;-42
2022/07/15 01:46:11;;;;;;;3.47;2.70;;;;;;;14.17;100.00;100517.63;1750732;80;20991;-42
2022/07/15 01:51:42;;;;;;;9.20;2.45;;;;;;;14.33;100.00;100523.62;1758208;79;20932;-42
2022/07/15 01:54:09;;;;;;;2.65;2.33;;;;;;;14.39;100.00;100518.20;1758255;80;21466;-42
2022/07/15 01:56:36;;;;;;;4.90;2.37;;;;;;;14.39;100.00;100521.27;1758797;79;21027;-42
2022/07/15 01:59:04;;;;;;;5.03;2.50;;;;;;;14.39;100.00;100523.88;1754620;80;20948;-42
2022/07/15 02:01:31;;;;;;;6.72;2.42;;;;;;;14.37;100.00;100518.70;1756989;80;22497;-42
2022/07/15 02:04:00;;;;;;;7.65;2.30;;;;;;;14.37;100.00;100521.30;1752015;80;21501;-42
2022/07/15 02:06:27;;;;;;;3.02;2.00;;;;;;;14.37;100.00;100514.80;1757880;80;20995;-42
2022/07/15 02:08:54;;;;;;;2.40;2.20;;;;;;;14.37;100.00;100510.45;1755506;79;20956;-42
2022/07/15 02:11:24;;;;;;;6.15;2.35;;;;;;;14.36;100.00;100515.27;1763928;80;20972;-42
2022/07/15 02:13:53;;;;;;;3.47;2.27;;;;;;;14.40;100.00;100515.16;1761549;79;21032;-42
2022/07/15 02:16:22;;;;;;;2.77;1.95;;;;;;;14.40;100.00;100513.42;1738458;80;21718;-42
2022/07/15 02:18:50;;;;;;;10.75;2.30;;;;;;;14.37;100.00;100509.16;1750410;80;20956;-42
2022/07/15 02:21:17;;;;;;;6.70;2.92;;;;;;;14.37;100.00;100505.68;1753717;80;21012;-42
2022/07/15 02:23:44;;;;;;;3.90;2.50;;;;;;;14.37;100.00;100504.38;1755573;79;21560;-42
2022/07/15 02:26:11;;;;;;;6.97;2.58;;;;;;;14.37;100.00;100506.55;1757026;80;21153;-43
2022/07/15 02:28:38;;;;;;;5.47;2.60;;;;;;;14.36;100.00;100511.36;1757843;80;21603;-42
2022/07/15 02:31:06;;;;;;;4.30;2.33;;;;;;;14.34;100.00;100506.66;1755539;80;21071;-42
2022/07/15 02:33:35;;;;;;;3.15;2.30;;;;;;;14.35;100.00;100512.26;1755684;79;22729;-42
2022/07/15 02:36:04;;;;;;;4.70;2.33;;;;;;;14.33;100.00;100515.37;1758108;79;21581;-42
2022/07/15 02:38:31;;;;;;;2.80;2.60;;;;;;;14.35;100.00;100514.00;1757816;79;21228;-42
2022/07/15 02:40:58;;;;;;;2.65;2.45;;;;;;;14.42;100.00;100510.74;1754440;80;21521;-42
2022/07/15 02:43:25;;;;;;;2.37;2.17;;;;;;;14.53;100.00;100511.69;1757230;80;21019;-42
2022/07/15 02:45:53;;;;;;;5.97;2.83;;;;;;;14.59;100.00;100508.42;1751104;79;20908;-42
2022/07/15 02:48:19;;;;;;;2.33;2.22;;;;;;;14.69;100.00;100514.17;1761563;79;21003;-42
2022/07/15 02:50:47;;;;;;;7.92;2.33;;;;;;;14.80;100.00;100520.34;1761311;80;21088;-42
2022/07/15 02:53:15;;;;;;;4.03;2.58;;;;;;;14.91;100.00;100516.89;1758719;80;20979;-42
2022/07/15 02:55:42;;;;;;;5.97;2.62;;;;;;;15.00;100.00;100518.33;1760000;79;20988;-42
2022/07/15 02:58:09;;;;;;;9.50;2.62;;;;;;;15.11;100.00;100517.94;1759330;80;21003;-42
2022/07/15 03:00:38;;;;;;;2.80;2.60;;;;;;;15.22;100.00;100524.91;1762210;79;20949;-42
2022/07/15 03:03:06;;;;;;;2.42;2.30;;;;;;;15.33;100.00;100531.03;1747817;79;21849;-42
2022/07/15 03:05:35;;;;;;;7.45;2.27;;;;;;;15.43;100.00;100527.63;1758839;80;21588;-42
2022/07/15 03:08:02;;;;;;;2.87;2.33;;;;;;;15.56;100.00;100528.02;1738423;79;20988;-42
2022/07/15 03:10:29;;;;;;;3.33;2.40;;;;;;;15.66;100.00;100528.07;1760592;80;21703;-42
2022/07/15 03:12:58;;;;;;;5.25;2.52;;;;;;;15.75;100.00;100526.84;1748016;80;20987;-42
2022/07/15 03:15:28;;;;;;;2.40;2.22;;;;;;;15.88;100.00;100532.90;1761738;80;21080;-42
2022/07/15 03:17:54;;;;;;;5.83;2.22;;;;;;;15.97;100.00;100533.86;1758975;79;20949;-42
2022/07/15 03:20:22;;;;;;;4.00;2.72;;;;;;;16.07;100.00;100531.30;1759931;80;21075;-43
2022/07/15 03:22:50;;;;;;;3.00;2.42;;;;;;;16.17;100.00;100538.74;1760570;80;20912;-42
2022/07/15 03:25:17;;;;;;;5.15;2.12;;;;;;;16.27;100.00;100540.05;1761477;80;21030;-42
2022/07/15 03:27:43;;;;;;;6.75;2.40;;;;;;;16.38;100.00;100535.70;1761625;79;21043;-42
2022/07/15 03:30:12;;;;;;;6.90;2.67;;;;;;;16.51;100.00;100537.34;1759793;79;20995;-42
2022/07/15 03:32:38;;;;;;;4.00;2.40;;;;;;;16.61;100.00;100537.36;1745312;79;21561;-43
2022/07/15 03:35:06;;;;;;;4.58;2.55;;;;;;;16.75;100.00;100535.91;1760751;80;20979;-42
2022/07/15 03:37:35;;;;;;;2.50;2.08;;;;;;;16.88;100.00;100534.92;1761398;79;20984;-42
2022/07/15 03:40:06;;;;;;;2.83;2.33;;;;;;;17.00;100.00;100537.05;1761640;79;21146;-42
2022/07/15 03:42:35;;;;;;;3.72;2.40;;;;;;;17.10;100.00;100530.95;1747564;80;21023;-42
2022/07/15 03:45:02;;;;;;;2.12;2.00;;;;;;;17.23;99.50;100539.92;1745385;79;20941;-43
2022/07/15 03:47:30;;;;;;;4.58;2.25;;;;;;;17.36;98.89;100539.38;1746171;80;20963;-42
2022/07/15 03:49:57;;;;;;;2.55;2.10;;;;;;;17.48;97.42;100540.12;1764325;80;20971;-43
2022/07/15 03:52:24;;;;;;;2.90;2.10;;;;;;;17.64;96.79;100537.63;1767201;79;21131;-43
2022/07/15 03:54:51;;;;;;;3.50;2.10;;;;;;;17.84;95.79;100544.17;1764137;79;20935;-43
2022/07/15 03:57:17;;;;;;;4.92;1.98;;;;;;;18.07;94.79;100545.27;1764127;79;20967;-43
2022/07/15 03:59:46;;;;;;;6.25;1.85;;;;;;;18.36;93.88;100536.88;1763600;79;20980;-43
2022/07/15 04:02:13;;;;;;;8.05;2.30;;;;;;;18.66;92.03;100535.80;1757119;80;20991;-43
2022/07/15 04:04:40;;;;;;;2.27;1.70;;;;;;;18.95;90.69;100532.13;1766822;80;21557;-43
2022/07/15 04:07:06;;;;;;;6.78;1.82;;;;;;;19.24;89.84;100526.30;1770993;79;20940;-43
2022/07/15 04:09:33;;;;;;;6.00;1.90;;;;;;;19.54;89.31;100534.75;1763643;80;20975;-43
2022/07/15 04:12:00;;;;;;;4.58;2.33;;;;;;;19.80;85.92;100530.66;1757778;79;20952;-43
2022/07/15 04:14:28;;;;;;;2.85;2.00;;;;;;;19.99;83.67;100537.53;1764141;80;21540;-41
2022/07/15 04:16:55;;;;;;;1.90;1.80;;;;;;;20.22;82.65;100539.31;1763836;79;22075;-41
2022/07/15 04:19:30;;;;;;;2.10;2.00;;;;;;;20.45;82.41;100537.12;1763326;80;21096;-41
2022/07/15 04:21:58;;;;;;;4.85;1.90;;;;;;;20.70;80.29;100528.62;1763857;79;20940;-41
2022/07/15 04:24:25;;;;;;;5.97;2.05;;;;;;;20.94;79.65;100539.94;1763895;79;21011;-41
2022/07/15 04:26:53;;;;;;;4.35;2.30;;;;;;;21.12;77.84;100538.45;1763745;80;20970;-42
2022/07/15 04:29:20;;;;;;;2.35;1.75;;;;;;;21.27;76.67;100532.70;1765032;79;21057;-42
2022/07/15 04:31:47;;;;;;;2.50;1.67;;;;;;;21.42;76.47;100533.52;1762801;80;20971;-42
2022/07/15 04:34:16;;;;;;;5.15;1.90;;;;;;;21.58;75.83;100537.34;1761374;80;21537;-42
2022/07/15 04:36:43;;;;;;;6.87;2.40;;;;;;;21.71;75.16;100534.80;1763802;80;20992;-41
2022/07/15 04:39:10;;;;;;;7.33;2.45;;;;;;;21.89;74.04;100534.11;1764050;80;21048;-41
2022/07/15 04:41:37;;;;;;;2.00;1.90;;;;;;;22.06;73.77;100534.32;1759453;79;21138;-43
2022/07/15 04:44:04;;;;;;;4.03;1.90;;;;;;;22.27;73.98;100536.48;1761996;80;21019;-41
2022/07/15 04:46:32;;;;;;;6.40;2.15;;;;;;;22.47;72.67;100533.85;1770497;80;20952;-41
2022/07/15 04:51:49;;;;;;;7.03;2.40;;;;;;;22.78;70.52;100533.94;1764164;80;20999;-42
2022/07/15 04:54:16;;;;;;;2.98;2.08;;;;;;;22.86;69.79;100536.51;1763462;79;22247;-42
2022/07/15 04:56:45;;;;;;;3.92;1.90;;;;;;;23.01;69.89;100537.23;1764109;79;20937;-42
2022/07/15 04:59:12;;;;;;;4.90;1.80;;;;;;;23.21;69.24;100530.08;1765940;79;20983;-42
2022/07/15 05:01:39;;;;;;;3.22;1.95;;;;;;;23.43;69.81;100532.55;1762725;80;20909;-42
2022/07/15 05:04:05;;;;;;;2.83;2.52;;;;;;;23.64;69.25;100534.60;1759142;80;21010;-42
2022/07/15 05:06:32;;;;;;;3.83;2.10;;;;;;;23.80;66.38;100537.80;1756781;80;21253;-43
2022/07/15 05:09:01;;;;;;;5.03;2.12;;;;;;;23.87;67.63;100539.52;1765995;80;20958;-42
2022/07/15 05:11:29;;;;;;;8.78;2.10;;;;;;;24.01;68.05;100535.02;1749617;80;20996;-42
2022/07/15 05:13:56;;;;;;;6.40;2.22;;;;;;;24.20;66.70;100532.70;1766986;80;20999;-42
2022/07/15 05:16:24;;;;;;;17.77;2.45;;;;;;;24.35;65.04;100535.16;1764653;80;20936;-42
2022/07/15 05:18:52;;;;;;;4.03;1.95;;;;;;;24.50;64.70;100535.80;1758388;80;20999;-42
2022/07/15 05:21:20;;;;;;;6.22;1.80;;;;;;;24.65;64.59;100533.31;1759130;80;20976;-42
2022/07/15 05:23:47;;;;;;;6.05;2.00;;;;;;;24.84;65.88;100526.59;1761360;80;20987;-42
2022/07/15 05:26:18;;;;;;;29.55;3.35;;;;;;;25.13;66.13;100528.77;1763965;80;20937;-42
2022/07/15 05:28:45;;;;;;;17.37;2.72;;;;;;;25.44;63.30;100526.80;1759942;79;21032;-43
2022/07/15 05:31:13;;;;;;;3.85;2.42;;;;;;;25.64;62.32;100531.84;1762643;80;20979;-43
2022/07/15 05:33:41;;;;;;;7.17;2.30;;;;;;;25.82;61.98;100530.34;1753956;79;20897;-42
2022/07/15 05:36:15;;;;;;;6.28;2.00;;;;;;;25.94;60.61;100536.95;1762848;80;21046;-42
2022/07/15 05:38:43;;;;;;;9.70;2.55;;;;;;;26.02;59.84;100528.33;1758770;79;20960;-42
2022/07/15 05:41:11;;;;;;;6.75;2.08;;;;;;;26.14;60.83;100538.40;1757635;80;20917;-42
2022/07/15 05:43:38;;;;;;;2.40;2.20;;;;;;;26.29;59.77;100542.47;1765697;79;21077;-43
2022/07/15 05:46:06;;;;;;;10.15;2.40;;;;;;;26.48;59.42;100543.58;1754986;79;21505;-42
2022/07/15 05:48:35;;;;;;;6.28;2.25;;;;;;;26.63;58.51;100530.31;1765496;79;21476;-42
2022/07/15 05:51:02;;;;;;;4.87;1.87;;;;;;;26.71;55.98;100530.98;1767198;79;20964;-42
2022/07/15 05:53:31;;;;;;;3.27;1.90;;;;;;;26.64;53.78;100528.01;1738758;80;21047;-42
2022/07/15 05:55:59;;;;;;;3.72;2.35;;;;;;;26.41;54.81;100534.46;1763610;80;21224;-42
2022/07/15 05:58:27;;;;;;;10.55;2.42;;;;;;;26.31;56.35;100528.59;1762697;80;21375;-42
2022/07/15 06:00:56;;;;;;;6.28;2.47;;;;;;;26.16;55.54;100531.19;1765166;80;21443;-42
2022/07/15 06:03:24;;;;;;;10.38;2.12;;;;;;;26.07;57.48;100526.98;1773287;79;21035;-42
2022/07/15 06:05:51;;;;;;;3.02;1.90;;;;;;;26.06;56.86;100530.61;1767199;80;20959;-42
2022/07/15 06:08:19;;;;;;;3.52;2.05;;;;;;;25.95;56.05;100533.33;1764110;80;21555;-42
2022/07/15 06:10:46;;;;;;;5.72;2.08;;;;;;;25.79;57.76;100538.55;1765504;80;21026;-42
2022/07/15 06:13:14;;;;;;;4.78;2.30;;;;;;;25.79;58.36;100538.55;1760928;79;20975;-42
2022/07/15 06:15:41;;;;;;;11.70;2.00;;;;;;;25.74;58.24;100538.09;1764109;79;21489;-42
2022/07/15 06:18:09;;;;;;;7.20;2.30;;;;;;;25.72;59.38;100538.70;1762282;79;20980;-42
2022/07/15 06:20:36;;;;;;;18.82;2.92;;;;;;;25.83;58.32;100541.80;1765293;80;22137;-42
2022/07/15 06:23:03;;;;;;;20.35;2.70;;;;;;;25.88;59.03;100540.08;1764589;80;20948;-42
2022/07/15 06:25:30;;;;;;;26.02;2.72;;;;;;;25.93;58.83;100541.89;1753765;79;20952;-42
2022/07/15 06:27:57;;;;;;;6.22;2.05;;;;;;;25.99;58.15;100543.17;1766630;80;20940;-42
2022/07/15 06:30:24;;;;;;;5.50;1.92;;;;;;;25.93;56.57;100545.37;1764199;79;20983;-42
2022/07/15 06:32:51;;;;;;;9.80;1.98;;;;;;;25.94;55.73;100541.75;1766498;79;21115;-42
2022/07/15 06:35:18;;;;;;;20.60;2.45;;;;;;;25.98;56.08;100548.97;1762644;80;21011;-42
2022/07/15 06:37:45;;;;;;;7.30;1.72;;;;;;;25.99;56.01;100545.36;1777895;79;20967;-42
2022/07/15 06:40:12;;;;;;;10.03;2.17;;;;;;;26.05;55.67;100547.48;1763790;80;20888;-42
2022/07/15 06:42:39;;;;;;;3.37;2.10;;;;;;;26.06;56.67;100554.97;1753898;79;21417;-42
2022/07/15 06:45:10;;;;;;;6.67;1.87;;;;;;;26.12;56.24;100550.48;1765981;80;21811;-42
2022/07/15 06:47:41;;;;;;;6.20;2.35;;;;;;;26.15;56.86;100544.92;1766195;80;21513;-43
2022/07/15 06:50:10;;;;;;;18.60;2.40;;;;;;;26.22;57.83;100547.94;1768228;80;20992;-42
2022/07/15 06:52:38;;;;;;;9.88;2.30;;;;;;;26.36;59.73;100543.62;1762783;80;20979;-43
2022/07/15 06:55:07;;;;;;;8.73;2.20;;;;;;;26.48;58.74;100546.23;1773421;80;21608;-42
2022/07/15 06:57:35;;;;;;;10.82;2.30;;;;;;;26.50;58.89;100546.94;1760462;80;22065;-43
2022/07/15 07:00:03;;;;;;;9.70;2.30;;;;;;;26.53;58.28;100538.71;1770737;80;21566;-42
2022/07/15 07:02:32;;;;;;;20.32;2.52;;;;;;;26.54;57.59;100537.73;1756395;80;21006;-42
2022/07/15 07:05:00;;;;;;;22.02;2.70;;;;;;;26.58;58.60;100540.98;1769735;79;21565;-42
2022/07/15 07:07:26;;;;;;;31.87;3.25;;;;;;;26.59;58.67;100540.02;1769905;80;21533;-42
2022/07/15 07:09:55;;;;;;;14.47;2.17;;;;;;;26.75;60.11;100545.67;1768136;80;20944;-42
2022/07/15 07:12:23;;;;;;;9.43;2.35;;;;;;;27.09;60.20;100533.97;1753881;80;20944;-42
2022/07/15 07:14:50;;;;;;;6.47;2.02;;;;;;;27.46;58.54;100534.72;1768371;79;21525;-42
2022/07/15 07:17:17;;;;;;;9.73;2.33;;;;;;;27.75;56.70;100537.94;1768907;80;20967;-43
2022/07/15 07:19:44;;;;;;;31.57;2.90;;;;;;;28.05;56.89;100531.30;1769699;80;21038;-43
2022/07/15 07:22:11;;;;;;;20.52;3.00;;;;;;;28.33;56.23;100532.26;1767483;80;21136;-42
2022/07/15 07:24:37;;;;;;;9.35;2.00;;;;;;;28.47;51.31;100530.97;1753834;80;21528;-43
2022/07/15 07:27:06;;;;;;;15.85;2.20;;;;;;;28.36;51.05;100526.65;1769782;80;21501;-43
2022/07/15 07:29:33;;;;;;;13.28;2.25;;;;;;;28.48;52.40;100524.66;1768128;80;21537;-42
2022/07/15 07:31:59;;;;;;;6.35;2.00;;;;;;;28.66;50.21;100524.74;1766548;80;21541;-42
2022/07/15 07:34:26;;;;;;;5.00;2.10;;;;;;;28.75;51.79;100527.03;1766288;80;21134;-42
2022/07/15 07:36:53;;;;;;;6.03;2.08;;;;;;;28.85;52.47;100523.55;1758360;80;21533;-43
2022/07/15 07:39:19;;;;;;;3.90;2.02;;;;;;;28.99;51.32;100522.22;1768181;80;20979;-42
2022/07/15 07:41:47;;;;;;;15.95;2.00;;;;;;;29.21;49.87;100522.30;1753830;80;21296;-43
2022/07/15 07:44:14;;;;;;;8.45;2.00;;;;;;;29.38;49.52;100520.66;1768837;80;20944;-43
2022/07/15 07:46:41;;;;;;;20.17;2.50;;;;;;;29.48;47.49;100520.62;1763867;80;21058;-43
2022/07/15 07:49:09;;;;;;;31.50;3.02;;;;;;;29.60;49.01;100521.25;1766366;80;20948;-43
2022/07/15 07:51:37;;;;;;;4.50;2.10;;;;;;;29.78;48.16;100519.91;1763467;80;21564;-43
2022/07/15 07:54:03;;;;;;;9.23;2.02;;;;;;;29.67;46.21;100508.97;1754701;80;20996;-43
2022/07/15 07:56:30;;;;;;;12.82;2.55;;;;;;;29.43;46.00;100512.25;1757238;80;21545;-43
2022/07/15 07:58:56;;;;;;;17.27;2.50;;;;;;;29.17;46.74;100509.77;1753870;79;21136;-43
2022/07/15 08:01:23;;;;;;;10.90;1.95;;;;;;;28.82;47.09;100506.02;1754943;79;20929;-43
2022/07/15 08:03:50;;;;;;;8.28;2.10;;;;;;;28.66;48.55;100513.27;1760352;80;20916;-43
2022/07/15 08:06:17;;;;;;;6.12;2.02;;;;;;;28.72;49.38;100503.88;1757832;80;21027;-43
2022/07/15 08:08:45;;;;;;;5.12;1.85;;;;;;;28.92;47.48;100497.48;1753023;80;21007;-42
2022/07/15 08:11:12;;;;;;;5.28;1.72;;;;;;;29.15;47.21;100499.75;1751979;80;22023;-43
2022/07/15 08:13:39;;;;;;;4.10;1.80;;;;;;;29.32;47.03;100498.61;1760056;79;21455;-43
2022/07/15 08:16:08;;;;;;;7.95;1.95;;;;;;;29.52;46.65;100496.67;1748906;80;20945;-43
2022/07/15 08:18:34;;;;;;;22.30;2.65;;;;;;;29.82;47.98;100495.45;1761807;80;21703;-43
2022/07/15 08:21:03;;;;;;;28.85;3.85;;;;;;;30.16;45.56;100494.39;1763849;80;20952;-43
2022/07/15 08:23:32;;;;;;;5.47;2.17;;;;;;;30.35;44.85;100496.87;1752741;79;21740;-43
2022/07/15 08:25:59;;;;;;;10.50;1.77;;;;;;;30.41;43.24;100494.08;1758113;79;21514;-42
2022/07/15 08:28:26;;;;;;;7.08;1.70;;;;;;;30.48;42.10;100490.28;1758352;79;21015;-43
2022/07/15 08:30:53;;;;;;;2.50;1.85;;;;;;;30.54;41.84;100488.31;1758102;79;22176;-44
2022/07/15 08:33:20;;;;;;;2.95;1.62;;;;;;;30.60;40.18;100491.67;1760552;80;21011;-43
2022/07/15 08:35:47;;;;;;;8.13;1.80;;;;;;;30.66;40.47;100489.72;1761347;80;21133;-43
2022/07/15 08:38:14;;;;;;;11.78;2.00;;;;;;;30.84;41.06;100483.47;1747554;79;21015;-43
2022/07/15 08:40:42;;;;;;;2.87;1.62;;;;;;;30.94;39.84;100478.00;1757010;80;21663;-43
2022/07/15 08:43:10;;;;;;;11.80;1.95;;;;;;;31.04;39.88;100476.53;1753408;79;21027;-43
2022/07/15 08:45:38;;;;;;;5.58;1.87;;;;;;;31.11;39.48;100480.21;1755177;79;21048;-43
2022/07/15 08:48:06;;;;;;;9.83;1.80;;;;;;;31.11;39.09;100473.53;1759645;79;21141;-43
2022/07/15 08:50:34;;;;;;;20.37;2.05;;;;;;;31.18;39.27;100480.41;1747560;80;21451;-43
2022/07/15 08:53:01;;;;;;;12.78;1.95;;;;;;;31.34;39.70;100468.94;1748518;82;21435;-43
2022/07/15 08:55:28;;;;;;;14.90;2.37;;;;;;;31.52;39.56;100470.13;1770236;80;20940;-42
2022/07/15 08:57:55;;;;;;;22.95;2.47;;;;;;;31.61;38.14;100470.97;1769630;80;20944;-43
2022/07/15 09:00:28;;;;;;;7.65;1.95;;;;;;;31.68;39.54;100466.62;1768134;80;21146;-43
2022/07/15 09:02:52;;;;;;;8.28;1.92;;;;;;;31.64;37.96;100462.12;1753261;80;20900;-43
2022/07/15 09:05:33;;;;;;;5.92;1.62;;;;;;;31.57;36.83;100461.09;1768236;80;20996;-43
2022/07/15 09:08:14;;;;;;;6.60;1.65;;;;;;;31.60;37.27;100461.28;1772549;80;21038;-43
2022/07/15 09:10:56;;;;;;;11.83;1.72;;;;;;;31.58;36.74;100460.13;1766741;80;21034;-42
2022/07/15 09:13:34;;;;;;;22.50;1.87;;;;;;;31.46;36.73;100460.95;1773274;80;21234;-42
2022/07/15 09:16:19;;;;;;;5.08;1.50;;;;;;;31.51;36.70;100450.59;1765825;80;21011;-42
2022/07/15 09:18:43;;;;;;;12.85;1.85;;;;;;;31.41;35.10;100450.41;1758828;80;20967;-42
2022/07/15 09:21:19;;;;;;;12.75;1.90;;;;;;;31.24;36.24;100445.03;1764023;80;21565;-42
2022/07/15 09:23:46;;;;;;;10.82;1.90;;;;;;;31.23;36.60;100444.20;1761572;79;21501;-42
2022/07/15 09:26:29;;;;;;;6.12;1.37;;;;;;;31.25;36.76;100442.20;1766952;80;21153;-42
2022/07/15 09:28:56;;;;;;;7.70;2.20;;;;;;;31.45;37.31;100443.23;1766081;80;20940;-42
2022/07/15 09:34:22;;;;;;;11.65;2.20;;;;;;;31.79;38.54;100438.73;1763161;80;21023;-43
2022/07/15 09:36:54;;;;;;;8.78;1.75;;;;;;;32.02;35.93;100434.02;1760548;80;21505;-42
2022/07/15 09:39:24;;;;;;;7.62;1.60;;;;;;;32.10;36.93;100430.02;1768619;80;20924;-42
2022/07/15 09:41:52;;;;;;;4.42;1.65;;;;;;;31.99;35.50;100435.22;1752731;80;20971;-42
2022/07/15 09:44:22;;;;;;;3.35;1.60;;;;;;;32.03;35.35;100425.84;1744242;82;20947;-42
2022/07/15 09:46:59;;;;;;;11.33;2.00;;;;;;;31.87;35.59;100436.06;1765659;80;21014;-43
2022/07/15 09:49:35;;;;;;;1.77;1.52;;;;;;;31.94;36.67;100433.53;1766283;80;21246;-42
2022/07/15 09:52:08;;;;;;;10.25;2.05;;;;;;;32.17;35.44;100426.98;1761615;80;21071;-43
2022/07/15 09:54:41;;;;;;;4.42;1.90;;;;;;;32.53;35.69;100427.88;1756734;79;21031;-42
2022/07/15 09:57:14;;;;;;;4.62;1.65;;;;;;;32.67;35.52;100428.17;1749573;80;22183;-42
2022/07/15 09:59:44;;;;;;;16.05;1.80;;;;;;;32.65;33.97;100426.98;1761441;79;20941;-43
2022/07/15 10:02:12;;;;;;;23.50;2.45;;;;;;;32.58;35.79;100425.18;1747351;79;20991;-42
2022/07/15 10:07:14;;;;;;;8.60;1.85;;;;;;;32.88;36.79;100419.55;1798675;79;22120;-42
2022/07/15 10:09:42;;;;;;;7.47;1.75;;;;;;;32.93;34.81;100414.48;1777349;80;20971;-43
2022/07/15 10:12:25;;;;;;;7.95;1.75;;;;;;;33.14;33.16;100413.02;1762000;80;21303;-43
2022/07/15 10:15:17;;;;;;;6.42;1.85;;;;;;;33.19;34.23;100415.98;1787008;80;20994;-43
2022/07/15 10:18:26;;;;;;;2.90;1.52;;;;;;;33.24;33.91;100416.80;1787934;80;21006;-42
2022/07/15 10:21:04;;;;;;;9.93;1.55;;;;;;;33.17;33.17;100411.31;1774032;80;20975;-44
2022/07/15 10:23:43;;;;;;;38.70;3.83;;;;;;;33.23;34.46;100411.11;1787234;80;20967;-43
2022/07/15 10:26:21;;;;;;;19.07;2.00;;;;;;;33.33;34.32;100409.02;1768157;80;21114;-42
2022/07/15 10:29:06;;;;;;;11.18;2.17;;;;;;;33.27;33.83;100404.90;1779430;80;21010;-42
2022/07/15 10:31:34;;;;;;;17.00;2.05;;;;;;;33.24;33.63;100396.70;1774954;80;20947;-43
2022/07/15 10:34:15;;;;;;;15.35;2.00;;;;;;;33.16;33.01;100404.81;1787782;80;21517;-43
2022/07/15 10:36:52;;;;;;;10.90;1.77;;;;;;;32.87;34.48;100403.11;1773952;80;21022;-43
2022/07/15 10:39:26;;;;;;;14.93;1.75;;;;;;;32.78;33.92;100398.30;1772230;80;21164;-43
2022/07/15 10:41:59;;;;;;;2.42;1.52;;;;;;;32.67;32.83;100393.34;1766111;80;20885;-43
2022/07/15 10:44:29;;;;;;;8.53;1.70;;;;;;;32.34;33.19;100392.16;1770995;80;20936;-43
2022/07/15 10:47:16;;;;;;;56.80;5.28;;;;;;;32.25;34.63;100404.19;1767039;80;20952;-43
2022/07/15 10:49:46;;;;;;;45.00;3.45;;;;;;;32.48;34.97;100392.76;1716549;82;21002;-43
2022/07/15 10:52:24;;;;;;;28.50;2.25;;;;;;;32.71;33.86;100393.81;1741981;82;21237;-43
2022/07/15 10:54:58;;;;;;;7.30;1.90;;;;;;;32.88;34.96;100392.75;1742824;82;20940;-43
2022/07/15 10:57:52;;;;;;;10.50;2.00;;;;;;;33.06;33.14;100394.31;1670731;84;21537;-43
2022/07/15 11:00:31;;;;;;;3.72;1.50;;;;;;;33.01;32.30;100379.28;1690161;84;21485;-43
2022/07/15 11:03:09;;;;;;;10.82;1.35;;;;;;;33.15;34.71;100380.36;1673124;84;21019;-43
2022/07/15 11:05:57;;;;;;;8.73;1.50;;;;;;;33.28;32.30;100379.75;1727597;82;21085;-42
2022/07/15 11:08:40;;;;;;;10.15;2.17;;;;;;;33.45;33.08;100376.45;1735917;82;20993;-43
2022/07/15 11:11:22;;;;;;;26.07;3.10;;;;;;;33.53;32.32;100385.27;1744478;82;20959;-43
2022/07/15 11:13:50;;;;;;;10.93;2.00;;;;;;;33.46;33.54;100380.28;1735028;82;20897;-43
2022/07/15 11:16:20;;;;;;;5.58;1.35;;;;;;;33.61;32.73;100384.36;1667858;85;21561;-43
2022/07/15 11:18:57;;;;;;;3.70;1.50;;;;;;;33.81;31.43;100377.95;1726333;82;21858;-43
2022/07/15 11:21:24;;;;;;;5.90;1.30;;;;;;;33.75;31.58;100383.21;1736714;82;20983;-42
2022/07/15 11:23:52;;;;;;;79.27;5.50;;;;;;;33.64;32.08;100383.14;1729375;82;21521;-43
2022/07/15 11:26:18;;;;;;;24.67;2.52;;;;;;;33.79;32.33;100378.64;1733870;82;21546;-43
2022/07/15 11:28:51;;;;;;;27.65;2.10;;;;;;;34.05;32.94;100376.05;1731594;82;20989;-43
2022/07/15 11:31:18;;;;;;;20.82;2.17;;;;;;;34.30;31.00;100382.47;1739218;82;21155;-43
2022/07/15 11:33:45;;;;;;;13.75;2.05;;;;;;;34.07;32.81;100380.72;1732424;82;21469;-43
2022/07/15 11:36:17;;;;;;;7.60;1.82;;;;;;;33.96;31.76;100378.48;1728991;82;20919;-43
2022/07/15 11:38:44;;;;;;;21.07;2.33;;;;;;;33.66;31.46;100374.41;1732159;82;20988;-43
2022/07/15 11:46:54;;;;;;;7.28;1.77;;;;;;;33.20;32.10;100371.27;1742005;82;22232;-43
2022/07/15 11:49:39;;;;;;;12.18;2.12;;;;;;;33.38;32.03;100363.75;1735358;82;21010;-43
2022/07/15 11:52:08;;;;;;;16.20;2.25;;;;;;;33.46;31.74;100362.84;1728974;82;21008;-43